createdAt,value
2022-11-13T00:03:18.123Z,3.53
2022-11-13T00:08:42.079Z,3.70
2022-11-13T00:14:03.909Z,3.20
2022-11-13T00:19:26.093Z,3.30
2022-11-13T00:24:49.455Z,3.00
2022-11-13T00:30:17.848Z,3.00
2022-11-13T00:35:41.240Z,3.33
2022-11-13T00:41:04.799Z,2.50
2022-11-13T00:46:26.690Z,2.97
2022-11-13T00:51:48.841Z,2.67
2022-11-13T00:57:12.299Z,2.20
2022-11-13T01:02:33.983Z,2.20
2022-11-13T01:07:56.379Z,1.90
2022-11-13T01:13:19.616Z,2.00
2022-11-13T01:18:42.873Z,1.90
2022-11-13T01:24:05.166Z,1.50
2022-11-13T01:29:28.593Z,1.63
2022-11-13T01:34:50.630Z,1.73
2022-11-13T01:40:15.127Z,1.73
2022-11-13T01:46:09.282Z,1.00
2022-11-13T01:51:35.269Z,1.20
2022-11-13T01:56:58.619Z,0.93
2022-11-13T02:02:22.308Z,1.40
2022-11-13T02:07:44.320Z,1.30
2022-11-13T02:13:07.150Z,1.10
2022-11-13T02:18:32.534Z,1.43
2022-11-13T02:24:04.771Z,1.50
2022-11-13T02:29:28.555Z,1.60
2022-11-13T02:34:50.685Z,1.73
2022-11-13T02:40:13.804Z,1.63
2022-11-13T02:45:38.701Z,1.30
2022-11-13T02:51:01.496Z,1.50
2022-11-13T02:56:23.448Z,1.40
2022-11-13T03:01:47.576Z,1.23
2022-11-13T03:07:09.764Z,1.30
2022-11-13T03:12:31.644Z,0.80
2022-11-13T03:17:55.157Z,0.90
2022-11-13T03:23:17.110Z,0.87
2022-11-13T03:28:39.382Z,0.80
2022-11-13T03:34:02.505Z,0.70
2022-11-13T03:39:24.757Z,0.60
2022-11-13T03:44:46.801Z,0.80
2022-11-13T03:50:10.965Z,0.90
2022-11-13T03:55:32.803Z,0.90
2022-11-13T04:00:55.512Z,0.53
2022-11-13T04:06:19.417Z,1.03
2022-11-13T04:11:41.646Z,0.80
2022-11-13T04:17:03.427Z,0.90
2022-11-13T04:22:27.012Z,1.13
2022-11-13T04:27:50.218Z,0.70
2022-11-13T04:33:12.128Z,0.77
2022-11-13T04:38:35.771Z,0.80
2022-11-13T04:43:57.979Z,1.13
2022-11-13T04:49:19.728Z,0.57
2022-11-13T04:54:43.113Z,0.93
2022-11-13T05:00:06.875Z,0.93
2022-11-13T05:05:29.814Z,2.10
2022-11-13T05:10:53.290Z,1.87
2022-11-13T05:16:16.393Z,1.53
2022-11-13T05:21:39.711Z,1.10
2022-11-13T05:27:03.411Z,0.87
2022-11-13T05:32:25.501Z,0.70
2022-11-13T05:37:47.549Z,0.93
2022-11-13T05:43:11.037Z,3.00
2022-11-13T05:48:33.674Z,2.90
2022-11-13T05:53:56.310Z,1.80
2022-11-13T05:59:19.822Z,2.30
2022-11-13T06:04:42.044Z,2.20
2022-11-13T06:10:04.017Z,2.33
2022-11-13T06:15:27.271Z,2.40
2022-11-13T06:20:49.464Z,1.80
2022-11-13T06:26:13.452Z,0.70
2022-11-13T06:31:37.917Z,2.00
2022-11-13T06:37:01.820Z,1.40
2022-11-13T06:42:24.305Z,0.57
2022-11-13T06:47:47.703Z,0.90
2022-11-13T06:53:09.614Z,1.67
2022-11-13T06:58:31.861Z,1.43
2022-11-13T07:03:55.718Z,1.20
2022-11-13T07:09:18.011Z,2.37
2022-11-13T07:14:39.846Z,2.83
2022-11-13T07:20:03.159Z,3.10
2022-11-13T07:25:25.388Z,1.73
2022-11-13T07:30:47.686Z,2.43
2022-11-13T07:36:12.153Z,2.50
2022-11-13T07:41:34.401Z,2.60
2022-11-13T07:46:56.530Z,2.00
2022-11-13T07:52:20.293Z,3.10
2022-11-13T07:57:42.102Z,2.93
2022-11-13T08:03:07.996Z,3.00
2022-11-13T08:08:31.639Z,2.53
2022-11-13T08:13:54.143Z,2.97
2022-11-13T08:19:16.293Z,2.70
2022-11-13T08:24:39.789Z,2.10
2022-11-13T08:30:01.993Z,2.40
2022-11-13T08:35:29.154Z,1.80
2022-11-13T08:40:53.432Z,3.23
2022-11-13T08:46:16.010Z,2.70
2022-11-13T08:51:37.811Z,2.93
2022-11-13T08:57:05.754Z,2.43
2022-11-13T09:02:28.851Z,2.37
2022-11-13T09:07:51.398Z,2.83
2022-11-13T09:13:14.773Z,1.40
2022-11-13T09:18:37.120Z,1.20
2022-11-13T09:23:59.149Z,0.77
2022-11-13T09:29:23.398Z,1.30
2022-11-13T09:34:45.458Z,1.47
2022-11-13T09:40:12.864Z,1.83
2022-11-13T09:45:36.354Z,2.50
2022-11-13T09:51:01.810Z,1.30
2022-11-13T09:56:30.522Z,1.20
2022-11-13T10:02:01.236Z,0.90
2022-11-13T10:07:34.404Z,1.00
2022-11-13T10:12:59.872Z,1.90
2022-11-13T10:18:28.681Z,1.10
2022-11-13T10:23:56.980Z,1.00
2022-11-13T10:29:21.371Z,1.00
2022-11-13T10:34:47.592Z,1.73
2022-11-13T10:40:10.236Z,1.00
2022-11-13T10:45:32.188Z,1.23
2022-11-13T10:50:57.873Z,1.50
2022-11-13T10:56:27.634Z,1.60
2022-11-13T11:01:50.240Z,1.57
2022-11-13T11:07:21.547Z,1.63
2022-11-13T11:12:44.115Z,1.90
2022-11-13T11:18:08.845Z,1.80
2022-11-13T11:23:41.354Z,1.23
2022-11-13T11:29:18.278Z,1.40
2022-11-13T11:34:45.757Z,1.10
2022-11-13T11:40:28.239Z,1.17
2022-11-13T11:45:50.857Z,0.97
2022-11-13T11:51:22.573Z,1.00
2022-11-13T11:56:48.859Z,1.30
2022-11-13T12:02:50.790Z,1.30
2022-11-13T12:08:24.061Z,1.50
2022-11-13T12:13:58.047Z,1.60
2022-11-13T12:19:31.151Z,1.10
2022-11-13T12:25:07.846Z,1.60
2022-11-13T12:30:42.854Z,1.30
2022-11-13T12:36:06.182Z,1.10
2022-11-13T12:41:34.578Z,1.50
2022-11-13T12:47:01.631Z,2.30
2022-11-13T12:52:25.112Z,1.80
2022-11-13T12:57:49.322Z,1.83
2022-11-13T13:03:31.813Z,1.70
2022-11-13T13:09:17.191Z,2.17
2022-11-13T13:15:10.286Z,1.87
2022-11-13T13:20:37.197Z,2.23
2022-11-13T13:26:14.887Z,2.03
2022-11-13T13:31:46.266Z,2.67
2022-11-13T13:37:22.137Z,2.20
2022-11-13T13:42:56.968Z,2.47
2022-11-13T13:48:25.187Z,2.10
2022-11-13T13:53:50.244Z,2.00
2022-11-13T13:59:18.050Z,2.10
2022-11-13T14:04:45.930Z,2.00
2022-11-13T14:10:17.693Z,2.07
2022-11-13T14:15:39.540Z,3.10
2022-11-13T14:21:04.053Z,3.70
2022-11-13T14:26:27.549Z,3.90
2022-11-13T14:31:50.213Z,4.47
2022-11-13T14:37:23.664Z,4.90
2022-11-13T14:42:50.482Z,4.57
2022-11-13T14:48:20.033Z,5.23
2022-11-13T14:53:43.765Z,6.67
2022-11-13T14:59:15.616Z,7.37
2022-11-13T15:04:42.021Z,6.97
2022-11-13T15:10:04.793Z,7.60
2022-11-13T15:15:31.405Z,7.60
2022-11-13T15:20:53.586Z,9.37
2022-11-13T15:26:16.080Z,8.63
2022-11-13T15:31:43.265Z,9.50
2022-11-13T15:37:12.230Z,9.50
2022-11-13T15:42:36.657Z,11.47
2022-11-13T15:48:00.237Z,10.20
2022-11-13T15:53:22.610Z,9.70
2022-11-13T15:58:44.645Z,10.60
2022-11-13T16:04:08.936Z,10.90
2022-11-13T16:09:30.949Z,10.90
2022-11-13T16:14:53.063Z,11.80
2022-11-13T16:20:18.265Z,12.37
2022-11-13T16:25:40.603Z,11.10
2022-11-13T16:31:02.631Z,14.83
2022-11-13T16:36:27.730Z,12.30
2022-11-13T16:41:49.867Z,14.57
2022-11-13T16:47:22.513Z,13.87
2022-11-13T16:52:45.939Z,45.10
2022-11-13T16:58:08.136Z,19.70
2022-11-13T17:03:30.515Z,11.60
2022-11-13T17:08:55.653Z,13.00
2022-11-13T17:14:18.530Z,14.67
2022-11-13T17:19:44.051Z,56.70
2022-11-13T17:25:08.577Z,20.80
2022-11-13T17:30:30.739Z,11.10
2022-11-13T17:35:56.096Z,11.20
2022-11-13T17:41:19.847Z,38.07
2022-11-13T17:46:41.996Z,12.10
2022-11-13T17:52:04.025Z,11.60
2022-11-13T17:57:27.425Z,12.90
2022-11-13T18:02:50.115Z,12.83
2022-11-13T18:08:12.835Z,12.53
2022-11-13T18:13:37.443Z,9.43
2022-11-13T18:19:01.086Z,9.73
2022-11-13T18:24:23.398Z,10.43
2022-11-13T18:29:47.550Z,10.90
2022-11-13T18:35:10.295Z,12.23
2022-11-13T18:40:32.662Z,10.50
2022-11-13T18:46:00.499Z,9.00
2022-11-13T18:51:24.761Z,9.63
2022-11-13T18:56:47.045Z,9.23
2022-11-13T19:02:12.786Z,10.87
2022-11-13T19:07:34.883Z,9.60
2022-11-13T19:12:56.629Z,11.77
2022-11-13T19:18:20.329Z,11.03
2022-11-13T19:23:43.339Z,14.33
2022-11-13T19:29:06.544Z,11.27
2022-11-13T19:34:30.065Z,10.70
2022-11-13T19:39:52.362Z,10.97
2022-11-13T19:45:14.778Z,9.80
2022-11-13T19:50:38.652Z,9.23
2022-11-13T19:56:01.065Z,8.20
2022-11-13T20:01:25.299Z,9.30
2022-11-13T20:06:50.789Z,10.10
2022-11-13T20:12:13.232Z,9.07
2022-11-13T20:17:35.220Z,10.93
2022-11-13T20:22:58.761Z,9.70
2022-11-13T20:28:22.421Z,8.60
2022-11-13T20:33:44.999Z,8.90
2022-11-13T20:39:09.586Z,7.87
2022-11-13T20:44:31.596Z,8.70
2022-11-13T20:49:53.581Z,9.60
2022-11-13T20:55:17.623Z,9.40
2022-11-13T21:00:39.784Z,9.33
2022-11-13T21:06:02.196Z,9.70
2022-11-13T21:11:26.561Z,10.07
2022-11-13T21:16:48.578Z,8.90
2022-11-13T21:22:10.931Z,9.47
2022-11-13T21:27:35.073Z,10.70
2022-11-13T21:33:00.065Z,11.27
2022-11-13T21:38:22.315Z,9.77
2022-11-13T21:43:46.128Z,9.90
2022-11-13T21:49:10.343Z,10.13
2022-11-13T21:54:32.701Z,9.80
2022-11-13T21:59:56.015Z,12.00
2022-11-13T22:05:18.194Z,13.63
2022-11-13T22:10:40.337Z,11.33
2022-11-13T22:16:05.605Z,11.07
2022-11-13T22:21:29.626Z,11.93
2022-11-13T22:26:51.580Z,10.90
2022-11-13T22:32:15.116Z,10.50
2022-11-13T22:37:36.929Z,10.27
2022-11-13T22:42:59.093Z,11.13
2022-11-13T22:48:22.531Z,11.27
2022-11-13T22:53:48.685Z,11.27
2022-11-13T22:59:12.490Z,11.60
2022-11-13T23:04:35.912Z,10.87
2022-11-13T23:09:57.946Z,10.90
2022-11-13T23:15:19.872Z,10.60
2022-11-13T23:20:44.419Z,9.50
2022-11-13T23:26:07.962Z,9.67
2022-11-13T23:31:29.960Z,9.60
2022-11-13T23:36:53.421Z,8.57
2022-11-13T23:42:20.706Z,9.13
2022-11-13T23:47:55.405Z,9.40
2022-11-13T23:53:19.573Z,7.93
2022-11-13T23:58:41.831Z,8.87
